| time (UTC) | temp F | wind direction | speed knots | gust knots | rain 1hr in | rain 24hr in | rain mn in | humidity % | barometer mb |
| 20260906171543 | 99 | 81 | 1.7 | 5.2 | 0.00 | 0.00 | 0.00 | 43 | 1015.3 |
| 20260906170040 | 99 | 0 | 1.7 | 8.7 | 0.00 | 0.00 | 0.00 | 44 | 1015.5 |
| 20260906164542 | 98 | 69 | 1.7 | 4.3 | 0.00 | 0.00 | 0.00 | 46 | 1015.8 |
| 20260906163103 | 98 | 121 | 1.7 | 7.8 | 0.00 | 0.00 | 0.00 | 46 | 1015.9 |
| 20260906161543 | 97 | 87 | 1.7 | 6.1 | 0.00 | 0.00 | 0.00 | 48 | 1015.9 |
| 20260906160040 | 96 | 82 | 2.6 | 7.0 | 0.00 | 0.00 | 0.00 | 49 | 1016.0 |
| 20260906154545 | 95 | 106 | 0.9 | 5.2 | 0.00 | 0.00 | 0.00 | 51 | 1015.8 |
| 20260906153051 | 93 | 101 | 1.7 | 6.1 | 0.00 | 0.00 | 0.00 | 56 | 1015.8 |
| 20260906151543 | 92 | 88 | 1.7 | 6.1 | 0.00 | 0.00 | 0.00 | 57 | 1015.8 |
| 20260906150048 | 90 | 92 | 1.7 | 5.2 | 0.00 | 0.00 | 0.00 | 59 | 1015.7 |
| 20260906144544 | 89 | 107 | 0.9 | 7.0 | 0.00 | 0.00 | 0.00 | 61 | 1015.9 |
| 20260906143047 | 88 | 37 | 0.9 | 3.5 | 0.00 | 0.00 | 0.00 | 65 | 1015.7 |
| 20260906141542 | 85 | 101 | 0.9 | 3.5 | 0.00 | 0.00 | 0.00 | 68 | 1015.6 |
| 20260906140044 | 84 | 63 | 0.9 | 3.5 | 0.00 | 0.00 | 0.00 | 71 | 1015.5 |
| 20260906134544 | 82 | 67 | 0.0 | 5.2 | 0.00 | 0.00 | 0.00 | 74 | 1015.4 |
| 20260906133046 | 80 | 93 | 0.9 | 2.6 | 0.00 | 0.00 | 0.00 | 77 | 1015.4 |
| 20260906131539 | 78 | 94 | 0.9 | 2.6 | 0.00 | 0.00 | 0.00 | 79 | 1015.3 |
| 20260906130046 | 76 | 74 | 0.0 | 2.6 | 0.00 | 0.00 | 0.00 | 83 | 1015.4 |
| 20260906124540 | 74 | 0 | 0.0 | 1.7 | 0.00 | 0.00 | 0.00 | 86 | 1015.2 |
| 20260906123049 | 72 | 101 | 0.0 | 1.7 | 0.00 | 0.00 | 0.00 | 88 | 1015.0 |
| 20260906121541 | 71 | 101 | 0.0 | 1.7 | 0.00 | 0.00 | 0.00 | 88 | 1014.8 |
| 20260906120055 | 71 | 0 | 0.0 | 0.0 | 0.00 | 0.00 | 0.00 | 88 | 1014.7 |
| 20260906114542 | 71 | 0 | 0.0 | 0.0 | 0.00 | 0.00 | 0.00 | 88 | 1014.6 |
| 20260906113046 | 71 | 0 | 0.0 | 0.0 | 0.00 | 0.00 | 0.00 | 88 | 1014.6 |
| 20260906111542 | 71 | 0 | 0.0 | 0.0 | 0.00 | 0.00 | 0.00 | 87 | 1014.4 |
| 20260906110044 | 71 | 0 | 0.0 | 0.0 | 0.00 | 0.00 | 0.00 | 87 | 1014.5 |
| 20260906104541 | 72 | 0 | 0.0 | 0.0 | 0.00 | 0.00 | 0.00 | 86 | 1014.3 |
| 20260906103045 | 72 | 0 | 0.0 | 0.0 | 0.00 | 0.00 | 0.00 | 86 | 1014.3 |
| 20260906101544 | 72 | 0 | 0.0 | 0.0 | 0.00 | 0.00 | 0.00 | 84 | 1014.3 |
| 20260906100040 | 73 | 0 | 0.0 | 0.0 | 0.00 | 0.00 | 0.00 | 83 | 1014.3 |
| 20260906094539 | 74 | 0 | 0.0 | 1.7 | 0.00 | 0.00 | 0.00 | 83 | 1014.1 |
| 20260906093054 | 74 | 0 | 0.0 | 0.9 | 0.00 | 0.00 | 0.00 | 82 | 1014.0 |
| 20260906091541 | 74 | 0 | 0.0 | 0.9 | 0.00 | 0.00 | 0.00 | 82 | 1013.9 |
| 20260906090044 | 74 | 0 | 0.0 | 0.9 | 0.00 | 0.00 | 0.00 | 81 | 1013.7 |
| 20260906084552 | 74 | 0 | 0.0 | 0.0 | 0.00 | 0.00 | 0.00 | 80 | 1013.6 |
| 20260906083045 | 74 | 0 | 0.0 | 0.0 | 0.00 | 0.00 | 0.00 | 80 | 1013.7 |
| 20260906081546 | 74 | 0 | 0.0 | 0.0 | 0.00 | 0.00 | 0.00 | 80 | 1013.7 |
| 20260906080051 | 75 | 0 | 0.0 | 0.0 | 0.00 | 0.00 | 0.00 | 80 | 1013.5 |
| 20260906074542 | 75 | 0 | 0.0 | 0.0 | 0.00 | 0.00 | 0.00 | 80 | 1013.6 |
| 20260906073042 | 75 | 0 | 0.0 | 0.0 | 0.00 | 0.00 | 0.00 | 79 | 1013.6 |
| 20260906071544 | 75 | 0 | 0.0 | 0.0 | 0.00 | 0.00 | 0.00 | 79 | 1013.8 |
| 20260906070041 | 75 | 0 | 0.0 | 0.0 | 0.00 | 0.00 | 0.00 | 79 | 1013.8 |
| 20260906064546 | 75 | 0 | 0.0 | 0.0 | 0.00 | 0.00 | 0.00 | 79 | 1014.0 |
| 20260906063043 | 75 | 0 | 0.0 | 1.7 | 0.00 | 0.00 | 0.00 | 79 | 1014.1 |
| 20260906061547 | 76 | 0 | 0.0 | 0.0 | 0.00 | 0.00 | 0.00 | 78 | 1014.0 |
| 20260906060052 | 76 | 0 | 0.0 | 0.0 | 0.00 | 0.00 | 0.00 | 77 | 1014.1 |
| 20260906054548 | 76 | 0 | 0.0 | 0.0 | 0.00 | 0.00 | 0.00 | 77 | 1014.2 |
| 20260906053045 | 77 | 0 | 0.0 | 0.0 | 0.00 | 0.00 | 0.00 | 76 | 1014.1 |
| 20260906051545 | 77 | 0 | 0.0 | 1.7 | 0.00 | 0.00 | 0.00 | 76 | 1014.1 |
| 20260906050047 | 77 | 0 | 0.0 | 0.0 | 0.00 | 0.00 | 0.00 | 76 | 1014.0 |
| 20260906044545 | 78 | 0 | 0.0 | 0.0 | 0.00 | 0.00 | 0.00 | 75 | 1014.2 |
| 20260906043046 | 78 | 0 | 0.0 | 0.0 | 0.00 | 0.00 | 0.00 | 74 | 1014.3 |
| 20260906041547 | 78 | 0 | 0.0 | 0.9 | 0.00 | 0.00 | 0.00 | 73 | 1014.3 |
| 20260906040047 | 78 | 0 | 0.0 | 0.9 | 0.00 | 0.00 | 0.00 | 73 | 1014.0 |
| 20260906034545 | 79 | 0 | 0.0 | 0.0 | 0.00 | 0.00 | 0.00 | 73 | 1013.9 |
| 20260906033045 | 80 | 0 | 0.0 | 0.0 | 0.00 | 0.00 | 0.00 | 71 | 1014.0 |
| 20260906031541 | 80 | 0 | 0.0 | 0.9 | 0.00 | 0.00 | 0.00 | 69 | 1013.8 |
| 20260906030051 | 81 | 0 | 0.0 | 0.0 | 0.00 | 0.00 | 0.00 | 67 | 1013.8 |
| 20260906024548 | 82 | 0 | 0.0 | 0.0 | 0.00 | 0.00 | 0.00 | 67 | 1013.5 |
| 20260906023046 | 83 | 0 | 0.0 | 0.0 | 0.00 | 0.00 | 0.00 | 65 | 1013.4 |
| 20260906021545 | 84 | 0 | 0.0 | 0.0 | 0.00 | 0.00 | 0.00 | 63 | 1013.2 |
| 20260906020048 | 85 | 0 | 0.9 | 3.5 | 0.00 | 0.00 | 0.00 | 62 | 1012.8 |
| 20260906014546 | 86 | 0 | 0.0 | 0.9 | 0.00 | 0.00 | 0.00 | 59 | 1012.5 |
| 20260906013042 | 87 | 0 | 0.0 | 0.9 | 0.00 | 0.00 | 0.00 | 58 | 1012.5 |
| 20260906011551 | 88 | 101 | 0.0 | 0.9 | 0.00 | 0.00 | 0.00 | 56 | 1012.5 |
| 20260906010041 | 88 | 0 | 0.0 | 5.2 | 0.00 | 0.00 | 0.00 | 55 | 1012.4 |
| 20260906004543 | 89 | 0 | 0.9 | 5.2 | 0.00 | 0.00 | 0.00 | 56 | 1012.2 |
| 20260906003044 | 91 | 0 | 0.0 | 1.7 | 0.00 | 0.00 | 0.00 | 53 | 1012.2 |
| 20260906001543 | 93 | 0 | 0.0 | 0.0 | 0.00 | 0.00 | 0.00 | 48 | 1012.2 |
| 20260906000044 | 94 | 0 | 0.0 | 0.9 | 0.00 | 0.00 | 0.00 | 47 | 1012.3 |
| 20260905234542 | 96 | 0 | 0.0 | 0.0 | 0.00 | 0.00 | 0.00 | 44 | 1012.1 |
| 20260905233103 | 98 | 0 | 0.0 | 1.7 | 0.00 | 0.00 | 0.00 | 41 | 1012.1 |
| 20260905231553 | 99 | 59 | 0.9 | 4.3 | 0.00 | 0.00 | 0.00 | 40 | 1012.1 |
| 20260905230047 | 99 | 0 | 0.0 | 3.5 | 0.00 | 0.00 | 0.00 | 40 | 1012.1 |
| 20260905224559 | 100 | 48 | 0.0 | 7.0 | 0.00 | 0.00 | 0.00 | 39 | 1012.0 |
| 20260905223050 | 101 | 0 | 0.0 | 2.6 | 0.00 | 0.00 | 0.00 | 38 | 1012.0 |
| 20260905221545 | 100 | 161 | 0.9 | 2.6 | 0.00 | 0.00 | 0.00 | 39 | 1012.0 |
| 20260905220048 | 98 | 194 | 1.7 | 4.3 | 0.00 | 0.00 | 0.00 | 42 | 1012.2 |
| 20260905214543 | 96 | 0 | 1.7 | 4.3 | 0.00 | 0.00 | 0.00 | 46 | 1012.3 |
| 20260905213043 | 95 | 327 | 0.9 | 7.0 | 0.00 | 0.00 | 0.00 | 45 | 1012.5 |
| 20260905211540 | 96 | 207 | 0.9 | 6.1 | 0.00 | 0.00 | 0.00 | 42 | 1012.5 |
| 20260905210042 | 103 | 117 | 3.5 | 8.7 | 0.00 | 0.00 | 0.00 | 37 | 1012.7 |
| 20260905204544 | 104 | 51 | 2.6 | 7.8 | 0.00 | 0.00 | 0.00 | 36 | 1012.9 |
| 20260905203041 | 103 | 0 | 1.7 | 5.2 | 0.00 | 0.00 | 0.00 | 36 | 1013.0 |
| 20260905201545 | 102 | 204 | 0.9 | 4.3 | 0.00 | 0.00 | 0.00 | 36 | 1013.2 |
| 20260905200049 | 100 | 217 | 1.7 | 7.0 | 0.00 | 0.00 | 0.00 | 38 | 1013.5 |
| 20260905194541 | 99 | 135 | 0.9 | 3.5 | 0.00 | 0.00 | 0.00 | 39 | 1013.6 |
| 20260905193041 | 98 | 311 | 0.0 | 2.6 | 0.00 | 0.00 | 0.00 | 41 | 1013.6 |
| 20260905191549 | 100 | 0 | 1.7 | 7.0 | 0.00 | 0.00 | 0.00 | 40 | 1013.9 |
| 20260905190058 | 100 | 50 | 0.9 | 5.2 | 0.00 | 0.00 | 0.00 | 41 | 1014.2 |
| 20260905184558 | 100 | 315 | 1.7 | 7.0 | 0.00 | 0.00 | 0.00 | 40 | 1014.3 |
| 20260905183045 | 100 | 86 | 1.7 | 7.0 | 0.00 | 0.00 | 0.00 | 39 | 1014.6 |
| 20260905181540 | 99 | 114 | 0.0 | 7.8 | 0.00 | 0.00 | 0.00 | 42 | 1015.0 |
| 20260905180043 | 99 | 90 | 1.7 | 7.8 | 0.00 | 0.00 | 0.00 | 42 | 1015.1 |
| 20260905174553 | 99 | 78 | 0.9 | 7.8 | 0.00 | 0.00 | 0.00 | 43 | 1015.4 |
| 20260905173045 | 98 | 124 | 0.9 | 5.2 | 0.00 | 0.00 | 0.00 | 45 | 1015.7 |